createdAt,value
2023-05-22T00:00:37.664Z,20.00
2023-05-22T00:01:37.829Z,19.00
2023-05-22T00:02:37.159Z,19.10
2023-05-22T00:03:37.156Z,19.30
2023-05-22T00:04:37.048Z,19.20
2023-05-22T00:05:36.929Z,20.10
2023-05-22T00:06:36.786Z,21.00
2023-05-22T00:07:36.776Z,19.50
2023-05-22T00:08:36.712Z,20.30
2023-05-22T00:09:37.318Z,19.70
2023-05-22T00:10:36.786Z,20.20
2023-05-22T00:11:36.545Z,21.50
2023-05-22T00:12:36.440Z,21.10
2023-05-22T00:13:36.372Z,20.20
2023-05-22T00:14:36.409Z,20.30
2023-05-22T00:15:36.295Z,19.80
2023-05-22T00:16:36.255Z,20.30
2023-05-22T00:17:36.264Z,18.10
2023-05-22T00:18:36.086Z,19.00
2023-05-22T00:19:36.132Z,18.50
2023-05-22T00:20:36.021Z,17.80
2023-05-22T00:21:35.928Z,17.90
2023-05-22T00:22:35.837Z,17.60
2023-05-22T00:23:35.828Z,19.40
2023-05-22T00:24:35.714Z,17.90
2023-05-22T00:25:35.627Z,18.30
2023-05-22T00:26:35.662Z,17.50
2023-05-22T00:27:35.514Z,18.10
2023-05-22T00:28:35.491Z,16.90
2023-05-22T00:29:35.573Z,17.40
2023-05-22T00:30:35.350Z,17.90
2023-05-22T00:31:35.345Z,18.30
2023-05-22T00:32:35.308Z,18.90
2023-05-22T00:33:35.230Z,18.00
2023-05-22T00:34:35.087Z,19.00
2023-05-22T00:35:35.282Z,18.60
2023-05-22T00:36:35.826Z,17.20
2023-05-22T00:37:34.899Z,18.40
2023-05-22T00:38:34.865Z,16.60
2023-05-22T00:39:34.801Z,18.60
2023-05-22T00:40:34.738Z,18.30
2023-05-22T00:41:34.801Z,17.50
2023-05-22T00:42:34.628Z,17.10
2023-05-22T00:43:34.606Z,18.00
2023-05-22T00:44:34.519Z,17.30
2023-05-22T00:45:34.472Z,17.80
2023-05-22T00:46:34.457Z,17.40
2023-05-22T00:47:34.389Z,17.80
2023-05-22T00:48:34.234Z,17.70
2023-05-22T00:49:34.171Z,18.30
2023-05-22T00:50:34.143Z,17.60
2023-05-22T00:51:34.832Z,17.80
2023-05-22T00:52:34.034Z,17.20
2023-05-22T00:53:33.947Z,18.00
2023-05-22T00:54:33.906Z,17.00
2023-05-22T00:55:33.859Z,17.50
2023-05-22T00:56:33.942Z,17.80
2023-05-22T00:57:33.728Z,17.20
2023-05-22T00:58:33.639Z,17.20
2023-05-22T00:59:33.632Z,17.30
2023-05-22T01:00:33.628Z,16.20
2023-05-22T01:01:33.895Z,18.20
2023-05-22T01:02:33.433Z,17.20
2023-05-22T01:03:33.403Z,17.40
2023-05-22T01:04:33.312Z,17.20
2023-05-22T01:05:33.222Z,17.30
2023-05-22T01:06:33.129Z,16.70
2023-05-22T01:07:33.094Z,16.80
2023-05-22T01:08:33.036Z,16.80
2023-05-22T01:09:32.987Z,16.50
2023-05-22T01:10:32.941Z,16.80
2023-05-22T01:11:32.855Z,16.70
2023-05-22T01:12:32.792Z,17.20
2023-05-22T01:13:32.726Z,17.70
2023-05-22T01:14:32.632Z,17.10
2023-05-22T01:15:32.626Z,16.40
2023-05-22T01:16:32.566Z,16.60
2023-05-22T01:17:32.508Z,16.00
2023-05-22T01:18:32.415Z,16.50
2023-05-22T01:19:32.526Z,16.70
2023-05-22T01:20:32.305Z,15.60
2023-05-22T01:21:32.297Z,16.80
2023-05-22T01:22:32.174Z,17.20
2023-05-22T01:23:32.142Z,17.90
2023-05-22T01:24:32.817Z,16.40
2023-05-22T01:25:32.046Z,17.80
2023-05-22T01:26:31.930Z,16.40
2023-05-22T01:27:31.863Z,16.30
2023-05-22T01:28:31.830Z,16.70
2023-05-22T01:29:31.771Z,16.50
2023-05-22T01:30:31.926Z,17.20
2023-05-22T01:31:31.689Z,16.10
2023-05-22T01:32:31.645Z,16.20
2023-05-22T01:33:31.604Z,16.60
2023-05-22T01:34:31.439Z,16.90
2023-05-22T01:35:31.394Z,17.30
2023-05-22T01:36:31.384Z,17.20
2023-05-22T01:37:31.229Z,17.90
2023-05-22T01:38:31.210Z,16.80
2023-05-22T01:39:31.155Z,17.10
2023-05-22T01:40:31.064Z,17.30
2023-05-22T01:41:31.007Z,17.20
2023-05-22T01:42:30.975Z,18.10
2023-05-22T01:43:30.889Z,18.00
2023-05-22T01:44:30.880Z,17.90
2023-05-22T01:45:31.359Z,19.20
2023-05-22T01:46:30.732Z,18.10
2023-05-22T01:47:30.652Z,19.00
2023-05-22T01:48:30.600Z,19.70
2023-05-22T01:49:30.534Z,18.20
2023-05-22T01:50:30.493Z,19.90
2023-05-22T01:51:30.373Z,19.80
2023-05-22T01:52:30.372Z,19.60
2023-05-22T01:53:30.256Z,19.90
2023-05-22T01:54:30.259Z,18.90
2023-05-22T01:55:30.151Z,19.00
2023-05-22T01:56:30.126Z,20.60
2023-05-22T01:57:30.066Z,20.10
2023-05-22T01:58:29.995Z,20.50
2023-05-22T01:59:29.883Z,20.00
2023-05-22T02:00:29.887Z,19.80
2023-05-22T02:01:29.914Z,19.40
2023-05-22T02:02:29.802Z,20.00
2023-05-22T02:03:29.831Z,19.30
2023-05-22T02:04:29.591Z,20.20
2023-05-22T02:05:29.571Z,19.40
2023-05-22T02:06:29.511Z,19.40
2023-05-22T02:07:29.515Z,19.70
2023-05-22T02:08:29.397Z,19.40
2023-05-22T02:09:29.294Z,19.50
2023-05-22T02:10:29.230Z,19.00
2023-05-22T02:11:29.195Z,19.50
2023-05-22T02:12:29.112Z,19.10
2023-05-22T02:13:29.112Z,19.70
2023-05-22T02:14:29.016Z,19.40
2023-05-22T02:15:29.008Z,19.00
2023-05-22T02:16:28.886Z,19.20
2023-05-22T02:17:28.877Z,20.60
2023-05-22T02:18:28.741Z,19.50
2023-05-22T02:19:28.724Z,19.60
2023-05-22T02:20:28.651Z,19.40
2023-05-22T02:21:28.539Z,19.40
2023-05-22T02:22:28.528Z,20.00
2023-05-22T02:23:28.452Z,19.70
2023-05-22T02:24:28.379Z,20.20
2023-05-22T02:25:28.421Z,19.90
2023-05-22T02:26:28.395Z,19.70
2023-05-22T02:27:28.197Z,19.10
2023-05-22T02:28:28.110Z,20.40
2023-05-22T02:29:28.067Z,20.10
2023-05-22T02:30:28.008Z,19.60
2023-05-22T02:31:28.041Z,20.80
2023-05-22T02:32:27.964Z,21.00
2023-05-22T02:33:27.828Z,20.20
2023-05-22T02:34:27.756Z,21.30
2023-05-22T02:35:27.750Z,20.40
2023-05-22T02:36:27.672Z,20.00
2023-05-22T02:37:27.611Z,21.00
2023-05-22T02:38:27.496Z,20.60
2023-05-22T02:39:27.481Z,20.40
2023-05-22T02:40:27.474Z,20.10
2023-05-22T02:41:28.555Z,21.50
2023-05-22T02:42:27.290Z,21.00
2023-05-22T02:43:27.229Z,20.20
2023-05-22T02:44:27.186Z,20.30
2023-05-22T02:45:27.203Z,20.70
2023-05-22T02:46:27.069Z,20.10
2023-05-22T02:47:27.841Z,20.10
2023-05-22T02:48:26.916Z,20.20
2023-05-22T02:49:26.925Z,20.40
2023-05-22T02:50:26.855Z,19.70
2023-05-22T02:51:26.666Z,19.10
2023-05-22T02:52:26.641Z,20.60
2023-05-22T02:53:26.582Z,20.50
2023-05-22T02:54:26.580Z,19.60
2023-05-22T02:55:26.453Z,18.90
2023-05-22T02:56:26.398Z,19.90
2023-05-22T02:57:26.365Z,19.60
2023-05-22T02:58:26.301Z,20.10
2023-05-22T02:59:26.228Z,19.20
2023-05-22T03:00:26.140Z,19.00
2023-05-22T03:01:26.113Z,19.50
2023-05-22T03:02:26.145Z,20.30
2023-05-22T03:03:26.020Z,19.50
2023-05-22T03:04:25.885Z,19.40
2023-05-22T03:05:25.798Z,20.20
2023-05-22T03:06:25.751Z,18.70
2023-05-22T03:07:25.742Z,20.40
2023-05-22T03:08:25.609Z,20.10
2023-05-22T03:09:25.582Z,19.80
2023-05-22T03:10:25.497Z,19.20
2023-05-22T03:11:25.471Z,19.70
2023-05-22T03:12:25.396Z,20.00
2023-05-22T03:13:25.355Z,19.50
2023-05-22T03:14:25.267Z,21.10
2023-05-22T03:15:25.218Z,19.80
2023-05-22T03:16:25.198Z,19.40
2023-05-22T03:17:25.131Z,19.70
2023-05-22T03:18:27.272Z,20.30
2023-05-22T03:19:25.113Z,20.50
2023-05-22T03:20:24.892Z,21.30
2023-05-22T03:21:24.836Z,20.10
2023-05-22T03:22:24.794Z,20.10
2023-05-22T03:23:24.680Z,18.80
2023-05-22T03:24:24.685Z,18.80
2023-05-22T03:25:24.605Z,20.80
2023-05-22T03:26:24.542Z,20.20
2023-05-22T03:27:24.501Z,19.30
2023-05-22T03:28:24.411Z,20.10
2023-05-22T03:29:24.347Z,20.80
2023-05-22T03:30:24.274Z,19.40
2023-05-22T03:31:24.236Z,20.80
2023-05-22T03:32:24.183Z,19.80
2023-05-22T03:33:24.224Z,20.10
2023-05-22T03:34:24.033Z,20.00
2023-05-22T03:35:23.972Z,20.70
2023-05-22T03:36:23.912Z,19.90
2023-05-22T03:37:24.855Z,20.30
2023-05-22T03:38:23.813Z,20.90
2023-05-22T03:39:23.752Z,19.80
2023-05-22T03:40:23.665Z,19.70
2023-05-22T03:41:23.639Z,20.50
2023-05-22T03:42:23.575Z,19.30
2023-05-22T03:43:23.480Z,19.50
2023-05-22T03:44:23.440Z,21.00
2023-05-22T03:45:23.356Z,20.30
2023-05-22T03:46:23.353Z,20.30
2023-05-22T03:47:23.311Z,19.80
2023-05-22T03:48:23.197Z,20.40
2023-05-22T03:49:23.126Z,20.30
2023-05-22T03:50:23.038Z,20.30
2023-05-22T03:51:23.007Z,19.40
2023-05-22T03:52:22.961Z,20.90
2023-05-22T03:53:22.863Z,19.90
2023-05-22T03:54:22.802Z,18.40
2023-05-22T03:55:22.742Z,19.80
2023-05-22T03:56:22.716Z,19.10
2023-05-22T03:57:22.619Z,19.00
2023-05-22T03:58:22.817Z,18.40
2023-05-22T03:59:22.468Z,18.90
2023-05-22T04:00:22.410Z,19.00
2023-05-22T04:01:22.343Z,19.20
2023-05-22T04:02:22.422Z,19.50
2023-05-22T04:03:22.355Z,18.50
2023-05-22T04:04:22.197Z,18.90
2023-05-22T04:05:22.174Z,19.90
2023-05-22T04:06:22.065Z,19.20
2023-05-22T04:07:22.051Z,19.30
2023-05-22T04:08:21.962Z,19.60
2023-05-22T04:09:22.065Z,19.10
2023-05-22T04:10:23.351Z,20.60
2023-05-22T04:11:21.755Z,18.60
2023-05-22T04:12:21.726Z,19.00
2023-05-22T04:13:21.634Z,19.90
2023-05-22T04:14:21.569Z,18.90
2023-05-22T04:15:21.678Z,18.30
2023-05-22T04:16:22.414Z,18.20
2023-05-22T04:17:21.470Z,18.20
2023-05-22T04:18:21.298Z,17.30
2023-05-22T04:19:21.337Z,18.10
2023-05-22T04:20:21.201Z,17.90
2023-05-22T04:21:21.188Z,19.10
2023-05-22T04:22:21.105Z,18.40
2023-05-22T04:23:21.071Z,19.70
2023-05-22T04:24:21.028Z,18.30
2023-05-22T04:25:20.932Z,19.70
2023-05-22T04:26:20.852Z,19.90
2023-05-22T04:27:20.837Z,19.00
2023-05-22T04:28:20.734Z,19.80
2023-05-22T04:29:20.651Z,18.70
2023-05-22T04:30:20.659Z,19.90
2023-05-22T04:31:20.584Z,20.10
2023-05-22T04:32:20.490Z,18.70
2023-05-22T04:33:20.452Z,18.60
2023-05-22T04:34:20.368Z,19.10
2023-05-22T04:35:20.315Z,19.40
2023-05-22T04:36:20.268Z,19.20
2023-05-22T04:37:20.474Z,19.20
2023-05-22T04:38:20.128Z,19.60
2023-05-22T04:39:20.086Z,18.00
2023-05-22T04:40:19.950Z,18.70
2023-05-22T04:41:21.800Z,19.40
2023-05-22T04:42:19.882Z,18.40
2023-05-22T04:43:19.796Z,18.80
2023-05-22T04:44:19.731Z,18.30
2023-05-22T04:45:19.691Z,19.10
2023-05-22T04:46:19.622Z,19.00
2023-05-22T04:47:19.587Z,18.10
2023-05-22T04:48:19.487Z,18.80
2023-05-22T04:49:19.448Z,18.20
2023-05-22T04:50:19.365Z,18.60
2023-05-22T04:51:19.306Z,18.90
2023-05-22T04:52:19.247Z,19.00
2023-05-22T04:53:19.218Z,18.40
2023-05-22T04:54:19.168Z,19.10
2023-05-22T04:55:19.369Z,18.20
2023-05-22T04:56:31.875Z,18.30
2023-05-22T04:57:18.923Z,18.20
2023-05-22T04:58:18.843Z,17.90
2023-05-22T04:59:18.825Z,19.20
2023-05-22T05:00:18.814Z,19.20
2023-05-22T05:01:18.769Z,18.10
2023-05-22T05:02:18.766Z,18.10
2023-05-22T05:03:18.668Z,18.70
2023-05-22T05:04:18.528Z,19.00
2023-05-22T05:05:18.481Z,18.50
2023-05-22T05:06:18.400Z,19.10
2023-05-22T05:07:18.305Z,18.80
2023-05-22T05:08:18.318Z,18.70
2023-05-22T05:09:18.818Z,18.50
2023-05-22T05:10:18.099Z,18.40
2023-05-22T05:11:18.095Z,19.50
2023-05-22T05:12:18.044Z,19.20
2023-05-22T05:13:17.995Z,19.50
2023-05-22T05:14:17.886Z,18.60
2023-05-22T05:15:17.861Z,18.30
2023-05-22T05:16:17.783Z,18.80
2023-05-22T05:17:17.697Z,18.30
2023-05-22T05:18:17.755Z,18.90
2023-05-22T05:19:17.613Z,18.50
2023-05-22T05:20:17.540Z,17.70
2023-05-22T05:21:17.428Z,18.10
2023-05-22T05:22:17.377Z,18.30
2023-05-22T05:23:17.360Z,19.30
2023-05-22T05:24:17.328Z,19.60
2023-05-22T05:25:17.829Z,18.70
2023-05-22T05:26:17.811Z,19.40
2023-05-22T05:27:17.102Z,18.20
2023-05-22T05:28:17.015Z,19.70
2023-05-22T05:29:16.998Z,18.50
2023-05-22T05:30:18.894Z,18.70
2023-05-22T05:31:16.850Z,18.90
2023-05-22T05:32:16.813Z,18.70
2023-05-22T05:33:16.728Z,18.20
2023-05-22T05:34:17.527Z,18.00
2023-05-22T05:35:16.608Z,18.40
2023-05-22T05:36:16.661Z,18.40
2023-05-22T05:37:16.474Z,18.70
2023-05-22T05:38:17.158Z,19.20
2023-05-22T05:39:16.383Z,18.30
2023-05-22T05:40:17.005Z,17.80
2023-05-22T05:41:16.208Z,19.00
2023-05-22T05:42:16.215Z,17.80
2023-05-22T05:43:16.145Z,18.20
2023-05-22T05:44:16.061Z,18.10
2023-05-22T05:45:16.126Z,17.00
2023-05-22T05:46:16.019Z,18.10
2023-05-22T05:47:15.874Z,16.40
2023-05-22T05:48:15.971Z,17.20
2023-05-22T05:49:15.888Z,16.80
2023-05-22T05:50:16.561Z,16.50
2023-05-22T05:51:15.719Z,16.50
2023-05-22T05:52:15.667Z,16.20
2023-05-22T05:53:15.508Z,16.20
2023-05-22T05:54:15.412Z,16.50
2023-05-22T05:55:15.470Z,16.20
2023-05-22T05:56:15.330Z,15.90
2023-05-22T05:57:15.487Z,16.00
2023-05-22T05:58:15.206Z,17.10
2023-05-22T05:59:15.123Z,17.20
2023-05-22T06:00:15.102Z,16.10
2023-05-22T06:01:15.223Z,16.30
2023-05-22T06:02:16.884Z,16.50
2023-05-22T06:03:15.073Z,16.30
2023-05-22T06:04:15.101Z,16.80
2023-05-22T06:05:14.789Z,15.80
2023-05-22T06:06:14.784Z,16.40
2023-05-22T06:07:14.654Z,17.00
2023-05-22T06:08:14.579Z,16.20
2023-05-22T06:09:14.659Z,15.60
2023-05-22T06:10:14.469Z,15.60
2023-05-22T06:11:14.487Z,16.50
2023-05-22T06:12:14.402Z,16.30
2023-05-22T06:13:14.318Z,15.40
2023-05-22T06:14:14.274Z,15.50
2023-05-22T06:15:14.142Z,15.30
2023-05-22T06:16:14.134Z,15.60
2023-05-22T06:17:14.303Z,16.10
2023-05-22T06:18:14.043Z,15.50
2023-05-22T06:19:13.990Z,15.80
2023-05-22T06:20:13.910Z,15.60
2023-05-22T06:21:14.075Z,17.00
2023-05-22T06:22:13.788Z,16.00
2023-05-22T06:23:13.668Z,15.20
2023-05-22T06:24:13.786Z,15.90
2023-05-22T06:25:13.556Z,15.40
2023-05-22T06:26:13.532Z,16.00
2023-05-22T06:27:13.435Z,15.40
2023-05-22T06:28:13.511Z,15.90
2023-05-22T06:29:13.457Z,15.60
2023-05-22T06:30:13.297Z,14.80
2023-05-22T06:31:13.205Z,15.50
2023-05-22T06:32:13.242Z,15.50
2023-05-22T06:33:13.188Z,15.40
2023-05-22T06:34:13.080Z,16.20
2023-05-22T06:35:13.013Z,15.70
2023-05-22T06:36:12.932Z,15.70
2023-05-22T06:37:13.359Z,15.80
2023-05-22T06:38:12.768Z,15.70
2023-05-22T06:39:12.715Z,15.70
2023-05-22T06:40:12.677Z,16.10
2023-05-22T06:41:12.645Z,15.40
2023-05-22T06:42:12.585Z,16.50
2023-05-22T06:43:12.553Z,15.40
2023-05-22T06:44:12.461Z,15.40
2023-05-22T06:45:12.369Z,15.00
2023-05-22T06:46:12.337Z,15.50
2023-05-22T06:47:13.057Z,14.30
2023-05-22T06:48:12.318Z,14.80
2023-05-22T06:49:12.170Z,16.00
2023-05-22T06:50:12.083Z,13.90
2023-05-22T06:51:12.110Z,14.70
2023-05-22T06:52:12.833Z,14.50
2023-05-22T06:53:11.904Z,15.40
2023-05-22T06:54:11.897Z,14.60
2023-05-22T06:55:11.804Z,15.10
2023-05-22T06:56:11.742Z,15.70
2023-05-22T06:57:11.669Z,14.80
2023-05-22T06:58:11.656Z,14.70
2023-05-22T06:59:11.857Z,14.50
2023-05-22T07:00:11.742Z,14.70
2023-05-22T07:01:11.539Z,14.70
2023-05-22T07:02:11.378Z,14.60
2023-05-22T07:03:11.349Z,15.30
2023-05-22T07:04:11.398Z,14.90
2023-05-22T07:05:11.222Z,15.90
2023-05-22T07:06:11.200Z,14.50
2023-05-22T07:07:11.079Z,14.90
2023-05-22T07:08:10.986Z,15.70
2023-05-22T07:09:11.137Z,14.50
2023-05-22T07:10:10.930Z,14.60
2023-05-22T07:11:10.819Z,15.30
2023-05-22T07:12:11.573Z,15.10
2023-05-22T07:13:10.687Z,14.90
2023-05-22T07:14:10.648Z,15.10
2023-05-22T07:15:10.738Z,16.80
2023-05-22T07:16:10.506Z,14.30
2023-05-22T07:17:10.565Z,14.20
2023-05-22T07:18:10.492Z,15.40
2023-05-22T07:19:10.409Z,15.60
2023-05-22T07:20:10.291Z,14.50
2023-05-22T07:21:10.283Z,14.40
2023-05-22T07:22:11.060Z,15.50
2023-05-22T07:23:10.167Z,15.00
2023-05-22T07:24:10.833Z,15.30
2023-05-22T07:25:09.996Z,16.10
2023-05-22T07:26:09.933Z,15.70
2023-05-22T07:27:09.879Z,15.70
2023-05-22T07:28:09.978Z,14.40
2023-05-22T07:29:09.768Z,14.60
2023-05-22T07:30:09.713Z,13.60
2023-05-22T07:31:09.670Z,14.20
2023-05-22T07:32:09.551Z,15.20
2023-05-22T07:33:09.635Z,14.90
2023-05-22T07:34:09.694Z,14.90
2023-05-22T07:35:09.433Z,14.20
2023-05-22T07:36:09.467Z,14.50
2023-05-22T07:37:09.292Z,13.40
2023-05-22T07:38:09.285Z,14.10
2023-05-22T07:39:09.157Z,14.00
2023-05-22T07:40:09.145Z,14.70
2023-05-22T07:41:09.098Z,14.00
2023-05-22T07:42:08.944Z,13.90
2023-05-22T07:43:08.976Z,14.20
2023-05-22T07:44:08.888Z,14.70
2023-05-22T07:45:08.817Z,13.40
2023-05-22T07:46:08.874Z,14.00
2023-05-22T07:47:09.329Z,13.40
2023-05-22T07:48:08.679Z,13.50
2023-05-22T07:49:08.545Z,13.80
2023-05-22T07:50:08.514Z,13.10
2023-05-22T07:51:09.069Z,14.90
2023-05-22T07:52:08.440Z,13.70
2023-05-22T07:53:08.361Z,13.80
2023-05-22T07:54:08.352Z,14.00
2023-05-22T07:55:08.995Z,12.90
2023-05-22T07:56:08.145Z,13.60
2023-05-22T07:57:08.112Z,13.90
2023-05-22T07:58:08.867Z,13.80
2023-05-22T07:59:07.953Z,13.60
2023-05-22T08:00:07.956Z,13.50
2023-05-22T08:01:09.636Z,14.40
2023-05-22T08:02:07.786Z,13.80
2023-05-22T08:03:07.886Z,13.50
2023-05-22T08:04:07.961Z,13.40
2023-05-22T08:05:07.620Z,13.80
2023-05-22T08:06:07.529Z,13.00
2023-05-22T08:07:07.492Z,12.90
2023-05-22T08:08:07.501Z,13.50
2023-05-22T08:09:07.572Z,13.60
2023-05-22T08:10:07.379Z,13.50
2023-05-22T08:11:07.341Z,13.60
2023-05-22T08:12:07.703Z,13.80
2023-05-22T08:13:07.838Z,13.90
2023-05-22T08:14:07.062Z,13.10
2023-05-22T08:15:07.022Z,13.30
2023-05-22T08:16:06.986Z,14.70
2023-05-22T08:17:06.970Z,13.80
2023-05-22T08:18:06.872Z,13.70
2023-05-22T08:19:07.924Z,13.90
2023-05-22T08:20:07.594Z,13.90
2023-05-22T08:21:06.700Z,13.60
2023-05-22T08:22:06.599Z,13.80
2023-05-22T08:23:06.568Z,13.70
2023-05-22T08:24:06.545Z,13.60
2023-05-22T08:25:06.475Z,13.30
2023-05-22T08:26:06.382Z,13.70
2023-05-22T08:27:06.455Z,14.20
2023-05-22T08:28:06.279Z,13.10
2023-05-22T08:29:06.199Z,12.00
2023-05-22T08:30:06.153Z,13.40
2023-05-22T08:31:06.124Z,13.70
2023-05-22T08:32:06.097Z,12.90
2023-05-22T08:33:05.981Z,12.80
2023-05-22T08:34:05.934Z,12.60
2023-05-22T08:35:05.889Z,13.50
2023-05-22T08:36:05.779Z,13.30
2023-05-22T08:37:05.760Z,13.10
2023-05-22T08:38:05.749Z,12.90
2023-05-22T08:39:05.574Z,13.00
2023-05-22T08:40:05.621Z,13.40
2023-05-22T08:41:05.494Z,13.40
2023-05-22T08:42:05.468Z,12.80
2023-05-22T08:43:05.411Z,12.50
2023-05-22T08:44:05.402Z,13.00
2023-05-22T08:45:05.277Z,12.60
2023-05-22T08:46:05.204Z,13.00
2023-05-22T08:47:05.920Z,13.90
2023-05-22T08:48:06.457Z,13.30
2023-05-22T08:49:05.141Z,13.30
2023-05-22T08:50:05.074Z,12.70
2023-05-22T08:51:05.496Z,12.90
2023-05-22T08:52:04.823Z,13.20
2023-05-22T08:53:04.802Z,14.00
2023-05-22T08:54:04.749Z,13.50
2023-05-22T08:55:04.690Z,12.60
2023-05-22T08:56:04.861Z,13.60
2023-05-22T08:57:04.556Z,14.20
2023-05-22T08:58:04.566Z,13.60
2023-05-22T08:59:04.468Z,12.60
2023-05-22T09:00:04.377Z,14.00
2023-05-22T09:01:04.472Z,13.20
2023-05-22T09:02:05.155Z,14.40
2023-05-22T09:03:04.392Z,13.20
2023-05-22T09:04:04.176Z,13.60
2023-05-22T09:05:04.137Z,12.70
2023-05-22T09:06:04.110Z,13.20
2023-05-22T09:07:03.972Z,12.70
2023-05-22T09:08:15.860Z,13.10
2023-05-22T09:09:03.912Z,12.20
2023-05-22T09:10:03.820Z,15.00
2023-05-22T09:11:03.737Z,12.90
2023-05-22T09:12:03.689Z,12.50
2023-05-22T09:13:03.646Z,12.90
2023-05-22T09:14:03.664Z,12.90
2023-05-22T09:15:03.473Z,12.40
2023-05-22T09:16:03.988Z,13.10
2023-05-22T09:17:03.406Z,12.00
2023-05-22T09:18:03.498Z,12.00
2023-05-22T09:19:03.339Z,12.30
2023-05-22T09:20:03.245Z,12.00
2023-05-22T09:21:04.934Z,12.20
2023-05-22T09:22:03.135Z,12.20
2023-05-22T09:23:03.069Z,12.10
2023-05-22T09:24:02.948Z,11.80
2023-05-22T09:25:03.355Z,12.90
2023-05-22T09:26:02.876Z,12.20
2023-05-22T09:27:02.965Z,13.10
2023-05-22T09:28:02.838Z,12.90
2023-05-22T09:29:02.873Z,13.00
2023-05-22T09:30:02.677Z,12.10
2023-05-22T09:31:04.154Z,11.80
2023-05-22T09:32:02.547Z,12.50
2023-05-22T09:33:02.598Z,12.70
2023-05-22T09:34:03.406Z,11.70
2023-05-22T09:35:02.377Z,12.50
2023-05-22T09:36:02.351Z,11.70
2023-05-22T09:37:02.295Z,11.90
2023-05-22T09:38:02.135Z,12.70
2023-05-22T09:39:02.095Z,11.60
2023-05-22T09:40:02.090Z,11.50
2023-05-22T09:41:01.997Z,10.50
2023-05-22T09:42:01.924Z,11.90
2023-05-22T09:43:02.033Z,11.60
2023-05-22T09:44:02.309Z,11.20
2023-05-22T09:45:01.820Z,11.60
2023-05-22T09:46:02.351Z,11.50
2023-05-22T09:47:01.678Z,11.30
2023-05-22T09:48:01.624Z,11.40
2023-05-22T09:49:01.498Z,11.80
2023-05-22T09:50:01.523Z,11.70
2023-05-22T09:51:01.461Z,11.40
2023-05-22T09:52:02.352Z,12.70
2023-05-22T09:53:01.340Z,12.00
2023-05-22T09:54:01.261Z,12.40
2023-05-22T09:55:01.261Z,12.20
2023-05-22T09:56:01.273Z,12.30
2023-05-22T09:57:01.096Z,10.70
2023-05-22T09:58:01.002Z,11.00
2023-05-22T09:59:00.946Z,11.00
2023-05-22T10:00:00.934Z,11.00
2023-05-22T10:01:00.844Z,11.70
2023-05-22T10:02:00.787Z,11.60
2023-05-22T10:03:00.766Z,10.60
2023-05-22T10:04:00.763Z,10.90
2023-05-22T10:05:00.652Z,11.10
2023-05-22T10:06:00.645Z,12.10
2023-05-22T10:07:00.612Z,11.20
2023-05-22T10:08:00.446Z,10.90
2023-05-22T10:09:00.362Z,11.10
2023-05-22T10:10:00.334Z,12.20
2023-05-22T10:11:00.269Z,11.10
2023-05-22T10:12:01.059Z,10.90
2023-05-22T10:13:00.213Z,10.80
2023-05-22T10:14:00.128Z,11.10
2023-05-22T10:15:00.141Z,10.90
2023-05-22T10:16:00.265Z,10.50
2023-05-22T10:16:59.877Z,10.60
2023-05-22T10:17:59.846Z,11.00
2023-05-22T10:18:59.829Z,10.50
2023-05-22T10:19:59.777Z,11.20
2023-05-22T10:20:59.736Z,11.40
2023-05-22T10:21:59.726Z,11.80
2023-05-22T10:23:00.531Z,11.40
2023-05-22T10:23:59.588Z,11.20
2023-05-22T10:24:59.411Z,11.60
2023-05-22T10:25:59.461Z,11.50
2023-05-22T10:26:59.541Z,11.30
2023-05-22T10:27:59.275Z,10.90
2023-05-22T10:28:59.246Z,11.20
2023-05-22T10:29:59.263Z,11.10
2023-05-22T10:30:59.904Z,10.90
2023-05-22T10:31:59.128Z,11.70
2023-05-22T10:32:59.083Z,11.20
2023-05-22T10:33:58.893Z,10.50
2023-05-22T10:34:58.898Z,11.10
2023-05-22T10:35:58.842Z,11.50
2023-05-22T10:37:16.132Z,11.40
2023-05-22T10:37:58.779Z,10.80
2023-05-22T10:38:58.598Z,10.80
2023-05-22T10:39:59.072Z,11.80
2023-05-22T10:40:58.520Z,11.20
2023-05-22T10:41:58.440Z,11.40
2023-05-22T10:42:58.380Z,11.40
2023-05-22T10:43:58.846Z,11.10
2023-05-22T10:44:58.895Z,11.40
2023-05-22T10:45:58.268Z,11.70
2023-05-22T10:46:58.873Z,11.70
2023-05-22T10:47:58.117Z,11.30
2023-05-22T10:48:58.282Z,12.70
2023-05-22T10:49:58.988Z,11.20
2023-05-22T10:50:59.938Z,12.30
2023-05-22T10:51:58.569Z,11.20
2023-05-22T10:53:00.561Z,10.10
2023-05-22T10:53:58.291Z,10.40
2023-05-22T10:55:00.532Z,10.40
2023-05-22T10:55:57.649Z,10.20
2023-05-22T10:56:57.756Z,10.20
2023-05-22T10:57:58.816Z,10.30
2023-05-22T10:58:57.576Z,10.10
2023-05-22T10:59:57.468Z,10.10
2023-05-22T11:00:57.342Z,11.40
2023-05-22T11:01:57.421Z,10.10
2023-05-22T11:03:03.355Z,10.10
2023-05-22T11:03:58.125Z,11.00
2023-05-22T11:04:58.147Z,11.40
2023-05-22T11:05:57.093Z,11.00
2023-05-22T11:06:57.220Z,10.20
2023-05-22T11:07:56.971Z,10.40
2023-05-22T11:08:57.082Z,10.00
2023-05-22T11:09:56.941Z,11.20
2023-05-22T11:10:58.089Z,10.80
2023-05-22T11:11:56.712Z,10.70
2023-05-22T11:12:57.592Z,9.70
2023-05-22T11:13:56.661Z,10.40
2023-05-22T11:14:56.719Z,10.50
2023-05-22T11:15:57.442Z,11.10
2023-05-22T11:16:58.238Z,11.80
2023-05-22T11:17:56.485Z,10.20
2023-05-22T11:18:56.841Z,10.70
2023-05-22T11:19:57.306Z,11.10
2023-05-22T11:20:56.359Z,10.70
2023-05-22T11:21:56.298Z,10.60
2023-05-22T11:22:56.075Z,9.90
2023-05-22T11:23:56.062Z,11.20
2023-05-22T11:24:56.842Z,10.90
2023-05-22T11:25:55.948Z,10.60
2023-05-22T11:26:55.947Z,10.70
2023-05-22T11:27:55.805Z,10.90
2023-05-22T11:28:55.791Z,9.40
2023-05-22T11:29:57.109Z,10.50
2023-05-22T11:30:55.990Z,10.80
2023-05-22T11:31:55.547Z,10.20
2023-05-22T11:32:55.674Z,10.40
2023-05-22T11:33:55.507Z,10.30
2023-05-22T11:34:55.758Z,10.90
2023-05-22T11:35:55.412Z,10.60
2023-05-22T11:36:55.865Z,10.60
2023-05-22T11:37:55.299Z,11.20
2023-05-22T11:38:55.152Z,11.30
2023-05-22T11:39:55.167Z,11.50
2023-05-22T11:40:56.084Z,10.80
2023-05-22T11:41:55.082Z,10.40
2023-05-22T11:42:55.595Z,11.00
2023-05-22T11:43:54.873Z,11.20
2023-05-22T11:44:54.922Z,10.60
2023-05-22T11:45:54.857Z,10.80
2023-05-22T11:46:54.843Z,10.80
2023-05-22T11:47:54.681Z,11.00
2023-05-22T11:48:55.585Z,11.80
2023-05-22T11:49:54.612Z,10.70
2023-05-22T11:50:54.579Z,10.70
2023-05-22T11:51:54.522Z,11.00
2023-05-22T11:52:54.390Z,10.30
2023-05-22T11:53:56.036Z,11.00
2023-05-22T11:54:54.368Z,11.40
2023-05-22T11:55:54.187Z,10.90
2023-05-22T11:56:54.210Z,10.80
2023-05-22T11:57:54.089Z,10.70
2023-05-22T11:58:53.983Z,10.60
2023-05-22T11:59:57.551Z,10.90
2023-05-22T12:00:53.937Z,11.10
2023-05-22T12:01:53.926Z,10.40
2023-05-22T12:02:56.223Z,10.10
2023-05-22T12:03:55.210Z,10.30
2023-05-22T12:04:55.084Z,10.50
2023-05-22T12:05:56.126Z,10.80
2023-05-22T12:06:53.783Z,9.90
2023-05-22T12:07:53.508Z,10.00
2023-05-22T12:08:53.445Z,10.40
2023-05-22T12:09:53.462Z,9.60
2023-05-22T12:10:53.359Z,10.10
2023-05-22T12:11:53.293Z,9.50
2023-05-22T12:12:54.104Z,9.70
2023-05-22T12:13:53.197Z,10.20
2023-05-22T12:14:53.113Z,10.30
2023-05-22T12:15:53.125Z,10.50
2023-05-22T12:16:53.769Z,9.80
2023-05-22T12:17:53.005Z,10.20
2023-05-22T12:18:52.916Z,9.90
2023-05-22T12:19:52.855Z,9.70
2023-05-22T12:20:52.735Z,10.20
2023-05-22T12:21:52.789Z,9.80
2023-05-22T12:22:53.590Z,10.60
2023-05-22T12:23:52.680Z,9.60
2023-05-22T12:24:52.653Z,9.80
2023-05-22T12:25:52.502Z,9.80
2023-05-22T12:26:52.472Z,9.70
2023-05-22T12:27:52.408Z,10.40
2023-05-22T12:28:52.340Z,9.80
2023-05-22T12:29:52.355Z,9.90
2023-05-22T12:30:52.275Z,10.00
2023-05-22T12:31:52.254Z,9.80
2023-05-22T12:32:52.315Z,9.50
2023-05-22T12:33:52.867Z,10.20
2023-05-22T12:34:51.999Z,10.40
2023-05-22T12:35:52.007Z,9.80
2023-05-22T12:36:51.868Z,9.90
2023-05-22T12:37:51.844Z,9.80
2023-05-22T12:38:51.890Z,10.30
2023-05-22T12:39:51.751Z,10.10
2023-05-22T12:40:53.749Z,9.80
2023-05-22T12:41:53.606Z,10.50
2023-05-22T12:42:52.336Z,10.80
2023-05-22T12:43:53.074Z,10.20
2023-05-22T12:44:52.576Z,10.50
2023-05-22T12:45:51.541Z,10.80
2023-05-22T12:46:51.351Z,10.30
2023-05-22T12:47:51.357Z,8.70
2023-05-22T12:48:51.239Z,9.40
2023-05-22T12:49:51.129Z,9.60
2023-05-22T12:50:51.084Z,8.60
2023-05-22T12:51:51.019Z,10.00
2023-05-22T12:52:51.004Z,10.50